createdAt,value
2019-01-04T00:02:01.449Z,9.47
2019-01-04T00:04:31.256Z,10.63
2019-01-04T00:07:00.937Z,10.33
2019-01-04T00:09:31.074Z,9.30
2019-01-04T00:12:00.862Z,10.20
2019-01-04T00:14:31.240Z,10.17
2019-01-04T00:17:02.178Z,11.37
2019-01-04T00:19:34.420Z,9.77
2019-01-04T00:22:05.145Z,10.10
2019-01-04T00:24:34.464Z,10.77
2019-01-04T00:27:03.733Z,9.70
2019-01-04T00:29:33.060Z,11.17
2019-01-04T00:32:02.407Z,10.80
2019-01-04T00:34:31.697Z,11.03
2019-01-04T00:37:00.984Z,10.77
2019-01-04T00:39:30.381Z,11.17
2019-01-04T00:41:59.648Z,10.33
2019-01-04T00:44:28.952Z,10.93
2019-01-04T00:46:58.252Z,10.03
2019-01-04T00:49:27.558Z,11.50
2019-01-04T00:51:56.824Z,11.53
2019-01-04T00:54:26.121Z,12.73
2019-01-04T00:57:22.474Z,12.90
2019-01-04T01:00:34.769Z,12.73
2019-01-04T01:03:51.073Z,12.60
2019-01-04T01:06:56.038Z,13.40
2019-01-04T01:09:52.849Z,12.43
2019-01-04T01:13:17.310Z,14.80
2019-01-04T01:16:45.781Z,14.83
2019-01-04T01:19:49.004Z,14.10
2019-01-04T01:23:23.909Z,14.67
2019-01-04T01:26:27.446Z,13.73
2019-01-04T01:29:33.899Z,13.20
2019-01-04T01:32:43.781Z,15.67
2019-01-04T01:35:34.541Z,14.30
2019-01-04T01:38:41.224Z,13.80
2019-01-04T01:42:03.152Z,14.57
2019-01-04T01:45:18.203Z,14.60
2019-01-04T01:47:54.430Z,15.13
2019-01-04T01:51:14.891Z,16.30
2019-01-04T01:53:47.614Z,16.63
2019-01-04T01:56:16.872Z,16.47
2019-01-04T01:58:46.154Z,19.30
2019-01-04T02:01:15.409Z,18.03
2019-01-04T02:03:44.711Z,19.12
2019-01-04T02:06:13.967Z,18.87
2019-01-04T02:08:43.244Z,21.40
2019-01-04T02:11:12.515Z,21.17
2019-01-04T02:13:41.814Z,22.10
2019-01-04T02:16:11.221Z,24.32
2019-01-04T02:18:40.634Z,26.52
2019-01-04T02:21:09.900Z,21.03
2019-01-04T02:23:39.191Z,27.17
2019-01-04T02:26:08.440Z,24.67
2019-01-04T02:28:37.724Z,28.13
2019-01-04T02:31:06.992Z,26.70
2019-01-04T02:33:36.282Z,27.30
2019-01-04T02:36:05.562Z,27.17
2019-01-04T02:38:34.936Z,25.83
2019-01-04T02:41:04.202Z,25.97
2019-01-04T02:43:33.471Z,25.30
2019-01-04T02:46:02.738Z,27.20
2019-01-04T02:48:32.033Z,27.07
2019-01-04T02:51:01.284Z,27.00
2019-01-04T02:53:30.557Z,24.40
2019-01-04T02:55:59.931Z,26.97
2019-01-04T02:58:29.189Z,26.17
2019-01-04T03:00:58.485Z,25.03
2019-01-04T03:03:27.753Z,27.70
2019-01-04T03:05:57.059Z,29.00
2019-01-04T03:08:26.337Z,28.77
2019-01-04T03:10:55.625Z,28.97
2019-01-04T03:13:24.899Z,30.10
2019-01-04T03:15:54.213Z,27.43
2019-01-04T03:18:23.905Z,27.33
2019-01-04T03:20:53.186Z,27.03
2019-01-04T03:23:22.452Z,29.17
2019-01-04T03:25:51.753Z,28.40
2019-01-04T03:28:21.020Z,27.00
2019-01-04T03:30:50.319Z,28.90
2019-01-04T03:33:19.654Z,30.43
2019-01-04T03:35:49.024Z,26.27
2019-01-04T03:38:18.312Z,30.23
2019-01-04T03:40:47.628Z,33.30
2019-01-04T03:43:16.918Z,30.57
2019-01-04T03:45:46.173Z,29.27
2019-01-04T03:48:15.463Z,28.17
2019-01-04T03:50:44.713Z,28.53
2019-01-04T03:53:14.014Z,29.93
2019-01-04T03:55:43.282Z,32.60
2019-01-04T03:58:12.556Z,30.00
2019-01-04T04:00:41.833Z,30.00
2019-01-04T04:03:11.196Z,31.70
2019-01-04T04:05:40.468Z,33.80
2019-01-04T04:08:09.729Z,30.80
2019-01-04T04:10:38.985Z,29.77
2019-01-04T04:13:08.292Z,27.30
2019-01-04T04:15:37.652Z,30.13
2019-01-04T04:18:06.945Z,31.00
2019-01-04T04:20:36.209Z,32.50
2019-01-04T04:23:05.508Z,32.93
2019-01-04T04:25:34.760Z,31.77
2019-01-04T04:28:04.053Z,34.27
2019-01-04T04:30:33.337Z,34.53
2019-01-04T04:33:02.630Z,34.20
2019-01-04T04:35:31.984Z,33.00
2019-01-04T04:38:01.272Z,35.77
2019-01-04T04:40:30.829Z,32.40
2019-01-04T04:43:00.176Z,38.10
2019-01-04T04:45:29.455Z,35.20
2019-01-04T04:47:58.744Z,36.37
2019-01-04T04:50:28.096Z,35.00
2019-01-04T04:52:57.370Z,34.33
2019-01-04T04:55:26.667Z,31.73
2019-01-04T04:57:55.938Z,32.23
2019-01-04T05:00:25.245Z,35.53
2019-01-04T05:02:54.521Z,31.40
2019-01-04T05:05:23.804Z,31.00
2019-01-04T05:07:53.077Z,29.73
2019-01-04T05:10:22.424Z,32.27
2019-01-04T05:12:51.769Z,31.60
2019-01-04T05:15:21.068Z,31.60
2019-01-04T05:17:50.361Z,28.43
2019-01-04T05:20:19.653Z,30.47
2019-01-04T05:22:48.918Z,27.17
2019-01-04T05:25:18.211Z,27.10
2019-01-04T05:27:47.662Z,25.03
2019-01-04T05:30:16.951Z,22.50
2019-01-04T05:32:46.220Z,20.97
2019-01-04T05:35:15.532Z,21.53
2019-01-04T05:37:44.862Z,23.80
2019-01-04T05:40:14.147Z,21.10
2019-01-04T05:42:43.598Z,22.27
2019-01-04T05:45:12.858Z,23.07
2019-01-04T05:47:42.135Z,19.50
2019-01-04T05:50:11.414Z,22.30
2019-01-04T05:52:40.673Z,21.50
2019-01-04T05:55:09.944Z,20.63
2019-01-04T05:57:39.229Z,18.90
2019-01-04T06:00:09.742Z,19.27
2019-01-04T06:02:39.022Z,19.30
2019-01-04T06:05:08.376Z,20.50
2019-01-04T06:07:37.676Z,20.00
2019-01-04T06:10:07.643Z,19.10
2019-01-04T06:12:36.927Z,20.07
2019-01-04T06:15:06.679Z,21.47
2019-01-04T06:17:35.962Z,21.27
2019-01-04T06:20:06.037Z,21.23
2019-01-04T06:22:35.330Z,21.90
2019-01-04T06:25:04.769Z,22.47
2019-01-04T06:27:34.040Z,21.33
2019-01-04T06:30:03.351Z,23.97
2019-01-04T06:32:32.724Z,22.07
2019-01-04T06:35:02.020Z,22.37
2019-01-04T06:37:31.377Z,21.50
2019-01-04T06:40:00.660Z,21.50
2019-01-04T06:42:29.945Z,20.37
2019-01-04T06:44:59.204Z,22.17
2019-01-04T06:47:28.481Z,23.30
2019-01-04T06:49:57.744Z,23.90
2019-01-04T06:52:27.033Z,23.13
2019-01-04T06:55:38.257Z,20.73
2019-01-04T06:58:07.617Z,20.47
2019-01-04T07:00:36.910Z,23.40
2019-01-04T07:03:06.225Z,23.20
2019-01-04T07:05:35.526Z,22.03
2019-01-04T07:08:04.827Z,24.13
2019-01-04T07:10:34.121Z,22.07
2019-01-04T07:13:03.407Z,23.33
2019-01-04T07:15:32.692Z,25.05
2019-01-04T07:18:01.982Z,27.37
2019-01-04T07:20:31.249Z,27.60
2019-01-04T07:23:00.540Z,26.45
2019-01-04T07:25:29.824Z,26.73
2019-01-04T07:27:59.094Z,29.90
2019-01-04T07:30:28.393Z,26.40
2019-01-04T07:32:57.661Z,28.60
2019-01-04T07:35:26.989Z,27.82
2019-01-04T07:37:56.349Z,31.65
2019-01-04T07:40:25.670Z,32.08
2019-01-04T07:42:54.944Z,30.05
2019-01-04T07:45:24.250Z,35.23
2019-01-04T07:47:53.536Z,30.10
2019-01-04T07:50:22.838Z,31.42
2019-01-04T07:52:52.110Z,31.07
2019-01-04T07:55:21.468Z,33.63
2019-01-04T07:57:50.847Z,33.08
2019-01-04T08:00:20.147Z,33.67
2019-01-04T08:02:53.554Z,32.80
2019-01-04T08:05:27.496Z,32.83
2019-01-04T08:07:56.838Z,30.75
2019-01-04T08:10:26.129Z,37.57
2019-01-04T08:12:55.417Z,32.42
2019-01-04T08:15:24.716Z,31.30
2019-01-04T08:17:54.014Z,27.03
2019-01-04T08:20:23.308Z,24.83
2019-01-04T08:22:52.581Z,25.77
2019-01-04T08:25:21.869Z,23.50
2019-01-04T08:27:51.245Z,23.63
2019-01-04T08:30:21.124Z,25.03
2019-01-04T08:32:50.456Z,20.90
2019-01-04T08:35:19.784Z,24.90
2019-01-04T08:37:49.072Z,23.93
2019-01-04T08:40:18.347Z,19.60
2019-01-04T08:42:47.647Z,21.43
2019-01-04T08:45:17.222Z,19.80
2019-01-04T08:47:46.920Z,20.10
2019-01-04T08:50:17.475Z,21.07
2019-01-04T08:52:50.453Z,21.80
2019-01-04T08:55:23.133Z,20.30
2019-01-04T08:57:52.439Z,19.00
2019-01-04T09:00:21.790Z,21.60
2019-01-04T09:02:52.546Z,20.40
2019-01-04T09:05:21.961Z,23.63
2019-01-04T09:07:51.265Z,23.30
2019-01-04T09:10:20.522Z,21.83
2019-01-04T09:12:49.810Z,19.27
2019-01-04T09:15:19.200Z,21.30
2019-01-04T09:17:48.488Z,20.13
2019-01-04T09:20:17.749Z,20.00
2019-01-04T09:22:47.076Z,22.50
2019-01-04T09:25:16.352Z,21.57
2019-01-04T09:27:45.647Z,21.67
2019-01-04T09:30:16.010Z,21.10
2019-01-04T09:32:45.368Z,20.13
2019-01-04T09:35:14.681Z,22.70
2019-01-04T09:37:43.975Z,21.87
2019-01-04T09:40:13.727Z,21.73
2019-01-04T09:42:45.670Z,22.27
2019-01-04T09:45:14.969Z,20.67
2019-01-04T09:47:44.245Z,17.57
2019-01-04T09:50:13.633Z,19.20
2019-01-04T09:52:42.919Z,18.23
2019-01-04T09:55:12.250Z,17.23
2019-01-04T09:57:41.518Z,18.50
2019-01-04T10:00:12.513Z,18.30
2019-01-04T10:02:41.892Z,17.90
2019-01-04T10:05:11.809Z,14.23
2019-01-04T10:07:41.085Z,12.70
2019-01-04T10:10:13.333Z,12.70
2019-01-04T10:12:42.779Z,12.33
2019-01-04T10:15:14.737Z,15.33
2019-01-04T10:17:44.110Z,13.83
2019-01-04T10:20:13.513Z,15.80
2019-01-04T10:22:42.802Z,15.10
2019-01-04T10:25:12.196Z,15.80
2019-01-04T10:27:41.496Z,18.33
2019-01-04T10:30:26.093Z,16.00
2019-01-04T10:32:55.361Z,17.53
2019-01-04T10:35:24.674Z,17.93
2019-01-04T10:37:54.012Z,16.93
2019-01-04T10:40:23.400Z,16.47
2019-01-04T10:42:52.677Z,16.63
2019-01-04T10:45:22.037Z,17.97
2019-01-04T10:47:51.402Z,18.93
2019-01-04T10:50:20.710Z,18.60
2019-01-04T10:52:49.981Z,17.57
2019-01-04T10:55:19.417Z,18.27
2019-01-04T10:57:48.769Z,22.03
2019-01-04T11:00:18.035Z,22.47
2019-01-04T11:02:47.354Z,23.63
2019-01-04T11:05:16.653Z,20.10
2019-01-04T11:07:45.967Z,22.50
2019-01-04T11:10:15.276Z,22.70
2019-01-04T11:12:44.566Z,21.90
2019-01-04T11:15:13.868Z,20.30
2019-01-04T11:17:43.145Z,19.17
2019-01-04T11:20:40.384Z,21.30
2019-01-04T11:23:21.201Z,21.60
2019-01-04T11:26:21.519Z,20.80
2019-01-04T11:29:32.490Z,17.83
2019-01-04T11:32:17.129Z,17.67
2019-01-04T11:35:27.003Z,16.13
2019-01-04T11:38:28.002Z,14.80
2019-01-04T11:41:39.353Z,15.70
2019-01-04T11:44:43.137Z,13.50
2019-01-04T11:47:53.422Z,13.20
2019-01-04T11:51:02.421Z,11.27
2019-01-04T11:53:31.768Z,10.17
2019-01-04T11:56:01.060Z,10.27
2019-01-04T11:58:30.445Z,8.90
2019-01-04T12:00:59.708Z,9.23
2019-01-04T12:03:29.021Z,8.90
2019-01-04T12:05:58.344Z,9.30
2019-01-04T12:08:27.705Z,7.73
2019-01-04T12:10:57.020Z,9.40
2019-01-04T12:13:26.345Z,10.60
2019-01-04T12:15:55.660Z,10.73
2019-01-04T12:18:24.956Z,9.30
2019-01-04T12:20:54.264Z,12.07
2019-01-04T12:23:23.648Z,9.73
2019-01-04T12:25:52.927Z,8.03
2019-01-04T12:28:22.225Z,10.30
2019-01-04T12:30:51.524Z,10.80
2019-01-04T12:33:20.833Z,10.80
2019-01-04T12:35:50.204Z,10.80
2019-01-04T12:38:19.470Z,10.10
2019-01-04T12:40:48.768Z,10.57
2019-01-04T12:43:18.113Z,11.27
2019-01-04T12:45:47.420Z,11.07
2019-01-04T12:48:16.698Z,9.90
2019-01-04T12:50:45.992Z,11.63
2019-01-04T12:53:15.277Z,12.53
2019-01-04T12:55:44.585Z,11.83
2019-01-04T12:58:14.656Z,11.70
2019-01-04T13:00:43.948Z,13.83
2019-01-04T13:03:13.284Z,13.50
2019-01-04T13:05:42.613Z,14.00
2019-01-04T13:08:11.898Z,15.03
2019-01-04T13:10:41.194Z,14.27
2019-01-04T13:13:10.547Z,16.77
2019-01-04T13:15:39.812Z,18.20
2019-01-04T13:18:09.085Z,17.37
2019-01-04T13:20:38.390Z,19.10
2019-01-04T13:23:07.677Z,18.43
2019-01-04T13:25:36.993Z,18.70
2019-01-04T13:28:06.281Z,20.50
2019-01-04T13:30:35.577Z,19.10
2019-01-04T13:33:04.867Z,21.70
2019-01-04T13:35:34.175Z,20.97
2019-01-04T13:38:03.482Z,21.67
2019-01-04T13:40:32.833Z,22.17
2019-01-04T13:43:02.116Z,23.33
2019-01-04T13:45:31.584Z,22.27
2019-01-04T13:48:00.917Z,22.33
2019-01-04T13:50:30.218Z,20.53
2019-01-04T13:52:59.561Z,22.47
2019-01-04T13:55:28.882Z,23.80
2019-01-04T13:57:58.196Z,23.23
2019-01-04T14:00:27.516Z,24.27
2019-01-04T14:02:56.817Z,24.10
2019-01-04T14:05:26.128Z,25.23
2019-01-04T14:07:55.475Z,22.90
2019-01-04T14:10:24.800Z,23.80
2019-01-04T14:12:54.162Z,26.97
2019-01-04T14:15:23.431Z,24.63
2019-01-04T14:17:52.718Z,28.80
2019-01-04T14:20:22.014Z,29.90
2019-01-04T14:22:51.322Z,28.97
2019-01-04T14:25:20.575Z,28.50
2019-01-04T14:27:49.876Z,28.53
2019-01-04T14:30:20.737Z,27.83
2019-01-04T14:32:50.043Z,29.07
2019-01-04T14:35:19.429Z,27.30
2019-01-04T14:37:48.722Z,25.70
2019-01-04T14:40:18.073Z,26.80
2019-01-04T14:42:48.265Z,23.70
2019-01-04T14:45:17.924Z,23.60
2019-01-04T14:47:48.101Z,25.07
2019-01-04T14:50:20.561Z,24.13
2019-01-04T14:52:52.111Z,25.93
2019-01-04T14:55:21.732Z,25.20
2019-01-04T14:57:54.444Z,26.00
2019-01-04T15:00:23.854Z,25.47
2019-01-04T15:02:53.507Z,22.43
2019-01-04T15:05:23.359Z,23.80
2019-01-04T15:07:53.109Z,22.77
2019-01-04T15:10:22.788Z,24.50
2019-01-04T15:12:52.652Z,24.07
2019-01-04T15:15:22.529Z,25.53
2019-01-04T15:17:52.000Z,26.40
2019-01-04T15:20:21.839Z,25.67
2019-01-04T15:22:51.719Z,27.30
2019-01-04T15:25:21.426Z,23.33
2019-01-04T15:27:50.843Z,22.97
2019-01-04T15:30:20.746Z,21.67
2019-01-04T15:32:50.231Z,22.17
2019-01-04T15:35:19.830Z,23.77
2019-01-04T15:37:52.237Z,25.87
2019-01-04T15:40:21.596Z,25.83
2019-01-04T15:42:51.679Z,32.23
2019-01-04T15:45:21.491Z,36.10
2019-01-04T15:47:51.254Z,33.70
2019-01-04T15:50:20.697Z,31.90
2019-01-04T15:52:50.627Z,37.90
2019-01-04T15:55:20.007Z,35.57
2019-01-04T15:57:49.336Z,37.90
2019-01-04T16:00:18.673Z,38.80
2019-01-04T16:02:47.956Z,37.50
2019-01-04T16:05:17.245Z,39.40
2019-01-04T16:07:46.563Z,43.50
2019-01-04T16:10:15.941Z,38.23
2019-01-04T16:12:45.414Z,38.57
2019-01-04T16:15:14.841Z,40.57
2019-01-04T16:17:44.351Z,40.53
2019-01-04T16:20:13.844Z,39.60
2019-01-04T16:22:43.267Z,37.13
2019-01-04T16:25:12.613Z,36.43
2019-01-04T16:27:41.909Z,38.60
2019-01-04T16:30:11.936Z,39.30
2019-01-04T16:32:41.272Z,41.37
2019-01-04T16:35:10.569Z,39.03
2019-01-04T16:37:39.853Z,44.30
2019-01-04T16:40:09.193Z,42.77
2019-01-04T16:42:38.500Z,49.53
2019-01-04T16:45:08.273Z,45.67
2019-01-04T16:47:38.132Z,47.20
2019-01-04T16:50:08.280Z,47.40
2019-01-04T16:52:37.844Z,46.60
2019-01-04T16:55:08.275Z,47.80
2019-01-04T16:57:37.595Z,48.13
2019-01-04T17:00:08.407Z,44.40
2019-01-04T17:02:37.773Z,44.30
2019-01-04T17:05:07.086Z,47.70
2019-01-04T17:07:36.386Z,44.65
2019-01-04T17:10:06.064Z,47.67
2019-01-04T17:12:36.004Z,48.90
2019-01-04T17:15:05.846Z,48.00
2019-01-04T17:17:35.320Z,45.13
2019-01-04T17:20:05.105Z,47.50
2019-01-04T17:22:34.478Z,45.50
2019-01-04T17:25:04.346Z,44.87
2019-01-04T17:27:33.891Z,46.47
2019-01-04T17:30:03.332Z,48.10
2019-01-04T17:32:32.712Z,45.07
2019-01-04T17:35:02.068Z,43.47
2019-01-04T17:37:31.442Z,44.87
2019-01-04T17:40:00.871Z,45.07
2019-01-04T17:42:32.980Z,46.20
2019-01-04T17:45:02.425Z,45.73
2019-01-04T17:47:32.161Z,43.83
2019-01-04T17:50:01.541Z,44.23
2019-01-04T17:52:30.947Z,40.93
2019-01-04T17:55:00.432Z,43.17
2019-01-04T17:57:29.847Z,42.53
2019-01-04T17:59:59.353Z,44.87
2019-01-04T18:02:29.310Z,43.73
2019-01-04T18:04:58.724Z,43.60
2019-01-04T18:07:28.102Z,42.53
2019-01-04T18:09:57.395Z,44.07
2019-01-04T18:12:26.696Z,43.27
2019-01-04T18:14:56.278Z,41.80
2019-01-04T18:17:25.584Z,44.37
2019-01-04T18:19:54.908Z,42.47
2019-01-04T18:22:24.228Z,41.50
2019-01-04T18:24:53.558Z,44.00
2019-01-04T18:27:23.158Z,41.73
2019-01-04T18:29:52.726Z,41.10
2019-01-04T18:32:22.143Z,41.77
2019-01-04T18:34:51.489Z,41.97
2019-01-04T18:37:21.286Z,44.30
2019-01-04T18:39:50.628Z,41.53
2019-01-04T18:42:19.932Z,43.57
2019-01-04T18:44:49.188Z,45.73
2019-01-04T18:47:18.485Z,44.70
2019-01-04T18:49:47.794Z,42.23
2019-01-04T18:52:17.296Z,38.80
2019-01-04T18:54:46.721Z,43.60
2019-01-04T18:57:16.214Z,43.60
2019-01-04T18:59:45.706Z,41.70
2019-01-04T19:02:16.199Z,40.63
2019-01-04T19:04:45.667Z,41.97
2019-01-04T19:07:15.155Z,40.87
2019-01-04T19:09:44.591Z,43.90
2019-01-04T19:12:13.919Z,39.90
2019-01-04T19:14:43.297Z,38.80
2019-01-04T19:17:13.132Z,39.37
2019-01-04T19:19:42.595Z,39.47
2019-01-04T19:22:11.873Z,37.70
2019-01-04T19:24:41.180Z,38.73
2019-01-04T19:27:10.458Z,39.77
2019-01-04T19:29:39.866Z,41.17
2019-01-04T19:32:09.164Z,37.90
2019-01-04T19:34:39.053Z,38.23
2019-01-04T19:37:08.397Z,34.67
2019-01-04T19:39:38.800Z,34.90
2019-01-04T19:42:08.076Z,39.60
2019-01-04T19:44:37.373Z,37.10
2019-01-04T19:47:06.777Z,37.70
2019-01-04T19:49:36.072Z,37.20
2019-01-04T19:52:05.461Z,37.75
2019-01-04T19:54:34.864Z,35.60
2019-01-04T19:57:04.209Z,39.03
2019-01-04T19:59:33.509Z,35.13
2019-01-04T20:02:02.788Z,38.40
2019-01-04T20:04:32.826Z,37.73
2019-01-04T20:07:53.250Z,36.70
2019-01-04T20:11:16.546Z,37.00
2019-01-04T20:14:43.008Z,37.43
2019-01-04T20:17:40.003Z,35.40
2019-01-04T20:20:30.925Z,38.13
2019-01-04T20:23:21.959Z,34.57
2019-01-04T20:26:19.207Z,41.50
2019-01-04T20:29:06.359Z,37.60
2019-01-04T20:31:54.772Z,39.20
2019-01-04T20:34:45.924Z,35.77
2019-01-04T20:37:33.219Z,36.80
2019-01-04T20:40:24.479Z,38.10
2019-01-04T20:43:16.309Z,35.47
2019-01-04T20:46:06.425Z,40.43
2019-01-04T20:48:53.655Z,36.17
2019-01-04T20:51:40.790Z,39.13
2019-01-04T20:54:26.722Z,39.70
2019-01-04T20:57:13.722Z,36.33
2019-01-04T21:00:11.101Z,37.90
2019-01-04T21:02:59.361Z,37.43
2019-01-04T21:05:47.386Z,36.10
2019-01-04T21:08:45.220Z,41.53
2019-01-04T21:11:36.269Z,40.10
2019-01-04T21:14:34.019Z,42.80
2019-01-04T21:17:37.833Z,39.83
2019-01-04T21:20:24.712Z,40.93
2019-01-04T21:23:11.867Z,39.10
2019-01-04T21:26:06.333Z,39.53
2019-01-04T21:29:03.653Z,43.20
2019-01-04T21:31:46.612Z,37.40
2019-01-04T21:34:34.838Z,41.23
2019-01-04T21:37:21.827Z,39.60
2019-01-04T21:40:12.817Z,42.27
2019-01-04T21:42:59.635Z,41.70
2019-01-04T21:46:00.175Z,35.47
2019-01-04T21:48:47.148Z,38.87
2019-01-04T21:51:35.463Z,40.73
2019-01-04T21:54:35.972Z,41.23
2019-01-04T21:57:39.379Z,42.57
2019-01-04T22:00:34.172Z,42.80
2019-01-04T22:03:22.421Z,41.30
2019-01-04T22:06:10.644Z,40.73
2019-01-04T22:08:54.316Z,41.00
2019-01-04T22:11:41.510Z,41.47
2019-01-04T22:14:28.649Z,38.90
2019-01-04T22:16:59.997Z,37.40
2019-01-04T22:19:47.123Z,40.17
2019-01-04T22:22:41.146Z,38.70
2019-01-04T22:25:32.481Z,36.83
2019-01-04T22:28:23.750Z,38.20
2019-01-04T22:31:24.052Z,37.10
2019-01-04T22:34:15.265Z,37.73
2019-01-04T22:37:15.890Z,38.40
2019-01-04T22:40:06.078Z,38.90
2019-01-04T22:42:53.242Z,38.75
2019-01-04T22:45:40.521Z,38.00
2019-01-04T22:48:38.046Z,36.87
2019-01-04T22:51:26.548Z,40.60
2019-01-04T22:54:13.633Z,36.50
2019-01-04T22:57:16.792Z,38.20
2019-01-04T23:00:17.414Z,36.40
2019-01-04T23:03:22.381Z,38.27
2019-01-04T23:06:16.941Z,39.60
2019-01-04T23:08:59.536Z,38.33
2019-01-04T23:11:46.655Z,38.35
2019-01-04T23:14:36.484Z,35.97
2019-01-04T23:17:30.816Z,36.87
2019-01-04T23:20:20.535Z,40.90
2019-01-04T23:23:07.509Z,38.40
2019-01-04T23:25:54.384Z,35.07
2019-01-04T23:28:37.177Z,36.37
2019-01-04T23:31:28.462Z,35.10
2019-01-04T23:34:16.723Z,34.77
2019-01-04T23:37:07.813Z,39.43
2019-01-04T23:40:05.218Z,42.17
2019-01-04T23:43:05.860Z,38.80
2019-01-04T23:46:00.136Z,38.23
2019-01-04T23:48:47.049Z,40.50
2019-01-04T23:51:33.949Z,37.80
2019-01-04T23:54:20.981Z,38.60
2019-01-04T23:57:09.218Z,41.10
2019-01-04T23:59:56.087Z,36.47
